createdAt,value
2022-07-29T00:03:06.846Z,17.4414
2022-07-29T00:08:12.220Z,17.36871
2022-07-29T00:13:13.832Z,17.25596
2022-07-29T00:18:14.790Z,17.15387
2022-07-29T00:23:15.727Z,17.09895
2022-07-29T00:28:16.706Z,16.97522
2022-07-29T00:33:17.834Z,16.92353
2022-07-29T00:38:18.897Z,16.83016
2022-07-29T00:43:20.051Z,16.73033
2022-07-29T00:48:21.297Z,16.66798
2022-07-29T00:53:22.545Z,16.54199
2022-07-29T00:58:24.564Z,16.46672
2022-07-29T01:03:25.625Z,16.46898
2022-07-29T01:08:26.814Z,16.75586
2022-07-29T01:13:27.746Z,17.06761
2022-07-29T01:33:55.371Z,16.9358
2022-07-29T01:38:56.433Z,16.54102
2022-07-29T01:44:02.298Z,16.2732
2022-07-29T01:49:03.293Z,16.01411
2022-07-29T01:54:04.309Z,15.80864
2022-07-29T01:59:05.195Z,15.71948
2022-07-29T02:04:06.143Z,15.63451
2022-07-29T02:09:07.134Z,15.57959
2022-07-29T02:19:10.062Z,15.88488
2022-07-29T02:24:11.025Z,15.71689
2022-07-29T02:29:11.952Z,15.75146
2022-07-29T02:34:13.488Z,15.73046
2022-07-29T02:39:14.629Z,15.67199
2022-07-29T02:44:15.841Z,15.59898
2022-07-29T02:49:17.103Z,15.53372
2022-07-29T02:54:18.534Z,15.48526
2022-07-29T02:59:19.981Z,15.46814
2022-07-29T03:04:21.340Z,15.45618
2022-07-29T03:09:22.496Z,15.43551
2022-07-29T03:14:23.376Z,15.42775
2022-07-29T03:19:24.292Z,15.43357
2022-07-29T03:24:25.305Z,15.44326
2022-07-29T03:29:33.297Z,15.41774
2022-07-29T03:34:35.361Z,15.4032
2022-07-29T03:39:36.268Z,15.37768
2022-07-29T03:44:37.152Z,15.40353
2022-07-29T03:49:38.482Z,15.38253
2022-07-29T03:54:39.559Z,15.84289
2022-07-29T03:59:40.506Z,15.85096
2022-07-29T04:04:41.512Z,15.71398
2022-07-29T04:09:42.416Z,15.64097
2022-07-29T04:14:43.340Z,15.6274
2022-07-29T04:19:44.227Z,15.77343
2022-07-29T04:24:45.154Z,15.9159
2022-07-29T04:29:56.577Z,16.01863
2022-07-29T04:34:58.524Z,16.0196
2022-07-29T04:39:59.519Z,16.16465
2022-07-29T04:50:00.923Z,16.34686
2022-07-29T04:55:01.826Z,16.28709
2022-07-29T05:00:02.744Z,16.28677
2022-07-29T05:05:03.702Z,16.50322
2022-07-29T05:10:04.817Z,16.52584
2022-07-29T05:15:05.803Z,16.81078
2022-07-29T05:20:06.811Z,16.7368
2022-07-29T05:25:09.290Z,16.94614
2022-07-29T05:30:10.368Z,16.86214
2022-07-29T05:35:11.415Z,16.69803
2022-07-29T05:40:12.382Z,16.75844
2022-07-29T05:45:13.369Z,17.08409
2022-07-29T05:50:14.590Z,17.61198
2022-07-29T05:55:15.500Z,17.51409
2022-07-29T06:00:16.432Z,17.38648
2022-07-29T06:10:17.856Z,18.21094
2022-07-29T06:15:19.034Z,18.62803
2022-07-29T06:20:20.013Z,18.76985
2022-07-29T06:25:28.594Z,18.78148
2022-07-29T06:35:38.666Z,19.43344
2022-07-29T06:40:43.722Z,19.73358
2022-07-29T06:45:45.667Z,20.02854
2022-07-29T06:50:46.642Z,19.90739
2022-07-29T06:55:47.636Z,19.94002
2022-07-29T07:00:48.767Z,20.07442
2022-07-29T07:05:50.379Z,20.25243
2022-07-29T07:15:52.006Z,20.72283
2022-07-29T07:20:52.950Z,20.65434
2022-07-29T07:36:19.810Z,21.42521
2022-07-29T07:46:25.860Z,20.92702
2022-07-29T07:51:26.920Z,21.0934
2022-07-29T07:56:30.715Z,21.68464
2022-07-29T08:01:48.112Z,21.9738
2022-07-29T08:06:56.813Z,22.09366
2022-07-29T08:22:09.004Z,22.66519
2022-07-29T08:32:10.388Z,22.64936
2022-07-29T08:37:11.616Z,22.62287
2022-07-29T08:42:12.568Z,22.94305
2022-07-29T08:47:13.531Z,23.18665
2022-07-29T08:52:14.558Z,23.15951
2022-07-29T08:57:15.544Z,23.38212
2022-07-29T09:02:18.781Z,23.41637
2022-07-29T09:07:19.703Z,23.5666
2022-07-29T09:12:29.396Z,23.77758
2022-07-29T09:22:31.746Z,24.88093
2022-07-29T09:27:32.801Z,25.36072
2022-07-29T09:32:33.704Z,25.44279
2022-07-29T09:37:34.797Z,25.51516
2022-07-29T09:42:35.791Z,25.59787
2022-07-29T09:47:39.244Z,25.49739
2022-07-29T09:52:46.726Z,25.78979
2022-07-29T09:57:47.660Z,26.23922
2022-07-29T10:02:48.576Z,26.11062
2022-07-29T10:07:53.474Z,26.44955
2022-07-29T10:12:56.387Z,27.52353
2022-07-29T10:18:06.022Z,26.77943
2022-07-29T10:23:12.556Z,26.66183
2022-07-29T10:28:16.540Z,26.3481
2022-07-29T10:33:17.939Z,26.32064
2022-07-29T10:38:18.872Z,26.28413
2022-07-29T10:43:20.149Z,26.48348
2022-07-29T10:48:21.128Z,26.9594
2022-07-29T10:53:24.883Z,27.32547
2022-07-29T10:58:26.280Z,27.98977
2022-07-29T11:03:27.598Z,27.73549
2022-07-29T11:08:29.685Z,27.80463
2022-07-29T11:13:30.559Z,27.59978
2022-07-29T11:18:37.113Z,27.74195
2022-07-29T11:23:38.046Z,28.26247
2022-07-29T11:28:39.684Z,28.36069
2022-07-29T11:33:56.095Z,28.40754
2022-07-29T11:38:58.014Z,28.36521
2022-07-29T11:44:01.621Z,28.34066
2022-07-29T11:49:02.703Z,28.48476
2022-07-29T11:54:15.593Z,28.43694
2022-07-29T11:59:17.736Z,28.6699
2022-07-29T12:04:18.722Z,28.99979
2022-07-29T12:09:20.854Z,28.96877
2022-07-29T12:14:21.814Z,29.34164
2022-07-29T12:19:24.332Z,29.16748
2022-07-29T12:24:27.422Z,29.59334
2022-07-29T12:29:35.638Z,29.62404
2022-07-29T12:39:37.377Z,30.87673
2022-07-29T12:44:38.318Z,31.07965
2022-07-29T12:49:39.287Z,30.73586
2022-07-29T12:54:40.219Z,30.4974
2022-07-29T12:59:41.494Z,30.20272
2022-07-29T13:04:42.419Z,30.00498
2022-07-29T13:09:43.348Z,29.82404
2022-07-29T13:14:44.273Z,29.93293
2022-07-29T13:19:45.299Z,30.31194
2022-07-29T13:24:46.228Z,30.49837
2022-07-29T13:29:47.162Z,31.24347
2022-07-29T13:34:48.114Z,31.4131
2022-07-29T13:39:52.919Z,31.61764
2022-07-29T13:44:54.309Z,30.66057
2022-07-29T13:49:55.239Z,30.28673
2022-07-29T13:54:56.293Z,30.32938
2022-07-29T13:59:57.222Z,30.73004
2022-07-29T14:04:58.204Z,30.56073
2022-07-29T14:09:59.152Z,30.78174
2022-07-29T14:15:00.096Z,30.98692
2022-07-29T14:20:00.991Z,31.14427
2022-07-29T14:25:03.445Z,31.15526
2022-07-29T14:30:16.289Z,30.62794
2022-07-29T14:35:18.180Z,31.21471
2022-07-29T14:40:19.192Z,31.8603
2022-07-29T14:45:20.120Z,32.63028
2022-07-29T14:50:29.890Z,32.62415
2022-07-29T14:55:33.245Z,32.50815
2022-07-29T15:00:34.201Z,31.88873
2022-07-29T15:05:35.135Z,31.42958
2022-07-29T15:10:36.133Z,31.10388
2022-07-29T15:15:37.086Z,31.82766
2022-07-29T15:20:37.995Z,32.07711
2022-07-29T15:25:39.260Z,32.32558
2022-07-29T15:30:40.716Z,32.69879
2022-07-29T15:35:41.928Z,32.439
2022-07-29T15:40:42.991Z,31.97371
2022-07-29T15:45:44.016Z,31.40567
2022-07-29T15:55:45.722Z,30.93134
2022-07-29T16:05:52.303Z,31.26382
2022-07-29T16:10:53.409Z,31.36561
2022-07-29T16:20:54.917Z,30.92132
2022-07-29T16:26:00.506Z,30.66154
2022-07-29T16:32:08.375Z,30.24311
2022-07-29T16:39:22.778Z,30.56881
2022-07-29T16:44:25.212Z,30.27769
2022-07-29T16:49:26.465Z,29.92097
2022-07-29T16:54:27.419Z,29.68898
2022-07-29T16:59:28.322Z,29.35812
2022-07-29T17:04:29.250Z,28.94906
2022-07-29T17:09:30.146Z,28.69866
2022-07-29T17:14:31.060Z,28.63985
2022-07-29T17:19:32.011Z,28.57135
2022-07-29T17:29:33.407Z,28.27442
2022-07-29T17:34:34.329Z,28.16295
2022-07-29T17:39:35.286Z,27.97846
2022-07-29T17:44:36.578Z,27.87184
2022-07-29T17:49:37.596Z,27.69025
2022-07-29T17:54:38.486Z,27.63145
2022-07-29T17:59:39.440Z,27.42822
2022-07-29T18:04:40.329Z,27.26182
2022-07-29T18:09:41.262Z,27.07959
2022-07-29T18:14:42.549Z,26.8531
2022-07-29T18:19:43.521Z,26.62499
2022-07-29T18:24:44.452Z,26.49026
2022-07-29T18:29:45.382Z,26.33647
2022-07-29T18:34:52.160Z,26.1817
2022-07-29T18:39:56.028Z,25.99851
2022-07-29T18:44:59.010Z,25.97718
2022-07-29T18:49:59.977Z,26.23825
2022-07-29T18:55:00.876Z,26.07831
2022-07-29T19:00:01.777Z,25.80918
2022-07-29T19:05:02.667Z,25.67121
2022-07-29T19:10:03.677Z,25.41791
2022-07-29T19:15:04.618Z,25.22438
2022-07-29T19:25:05.997Z,25.05766
2022-07-29T19:30:06.920Z,24.76946
2022-07-29T19:35:07.843Z,24.57819
2022-07-29T19:40:08.828Z,24.43474
2022-07-29T19:45:09.781Z,24.37949
2022-07-29T19:50:10.728Z,24.26059
2022-07-29T19:55:11.615Z,24.11359
2022-07-29T20:10:13.453Z,23.73881
2022-07-29T20:15:16.590Z,23.64059
2022-07-29T20:20:17.653Z,23.56628
2022-07-29T20:25:18.645Z,23.47291
2022-07-29T20:30:19.569Z,23.41152
2022-07-29T20:35:22.062Z,23.45417
2022-07-29T20:40:22.990Z,23.32558
2022-07-29T20:45:23.905Z,23.19247
2022-07-29T20:50:24.802Z,23.07422
2022-07-29T20:55:25.709Z,22.96986
2022-07-29T21:00:26.614Z,22.871
2022-07-29T21:05:27.527Z,22.8794
2022-07-29T21:10:28.437Z,22.84903
2022-07-29T21:15:29.397Z,22.75856
2022-07-29T21:20:30.618Z,22.72755
2022-07-29T21:25:31.516Z,22.8025
2022-07-29T21:30:32.410Z,22.74984
2022-07-29T21:36:06.171Z,22.61964
2022-07-29T21:41:11.514Z,22.46423
2022-07-29T21:46:12.714Z,22.36149
2022-07-29T21:51:13.662Z,22.24583
2022-07-29T21:56:15.200Z,22.13857
2022-07-29T22:01:18.541Z,22.17346
2022-07-29T22:06:19.479Z,22.12661
2022-07-29T22:11:20.425Z,22.01515
2022-07-29T22:16:21.412Z,21.91176
2022-07-29T22:21:22.505Z,21.84069
2022-07-29T22:26:23.539Z,21.78415
2022-07-29T22:31:24.483Z,21.7499
2022-07-29T22:36:25.436Z,21.67688
2022-07-29T22:41:26.410Z,21.53893
2022-07-29T22:46:27.420Z,21.48174
2022-07-29T22:51:28.324Z,21.48368
2022-07-29T22:56:29.221Z,21.36479
2022-07-29T23:01:37.641Z,21.29436
2022-07-29T23:06:38.992Z,21.23071
2022-07-29T23:11:40.129Z,21.15027
2022-07-29T23:16:41.088Z,21.09696
2022-07-29T23:21:42.147Z,21.04882
2022-07-29T23:26:43.401Z,21.05011
2022-07-29T23:31:44.356Z,20.96159
2022-07-29T23:36:49.259Z,20.8918
2022-07-29T23:41:50.193Z,20.8595
2022-07-29T23:46:51.224Z,20.82783
2022-07-29T23:51:52.259Z,20.78777
2022-07-29T23:56:53.147Z,20.73253
